createdAt,value
2022-12-01T00:01:20.773Z,100442.75
2022-12-01T00:03:48.035Z,100440.28
2022-12-01T00:06:17.258Z,100447.84
2022-12-01T00:09:04.456Z,100445.94
2022-12-01T00:11:32.868Z,100445.84
2022-12-01T00:14:01.716Z,100449.91
2022-12-01T00:16:28.968Z,100435.38
2022-12-01T00:18:56.411Z,100441.06
2022-12-01T00:21:24.797Z,100453.94
2022-12-01T00:23:54.600Z,100457.78
2022-12-01T00:26:22.852Z,100457.06
2022-12-01T00:28:58.074Z,100459.19
2022-12-01T00:31:25.718Z,100445.88
2022-12-01T00:33:53.106Z,100441.91
2022-12-01T00:36:21.433Z,100444.38
2022-12-01T00:38:52.815Z,100443.41
2022-12-01T00:41:20.323Z,100439.56
2022-12-01T00:43:47.499Z,100447.88
2022-12-01T00:46:14.627Z,100455.75
2022-12-01T00:48:41.973Z,100451.06
2022-12-01T00:51:09.029Z,100447.53
2022-12-01T00:53:35.986Z,100453.22
2022-12-01T00:56:03.159Z,100440.41
2022-12-01T00:58:30.129Z,100460.78
2022-12-01T01:00:59.341Z,100466.34
2022-12-01T01:03:27.274Z,100464.53
2022-12-01T01:05:54.214Z,100458.13
2022-12-01T01:08:21.330Z,100462.50
2022-12-01T01:10:49.079Z,100410.88
2022-12-01T01:13:17.163Z,100452.25
2022-12-01T01:15:44.086Z,100442.75
2022-12-01T01:18:12.254Z,100456.63
2022-12-01T01:20:39.540Z,100425.59
2022-12-01T01:23:07.243Z,100438.91
2022-12-01T01:25:34.163Z,100413.44
2022-12-01T01:28:01.222Z,100415.16
2022-12-01T01:30:28.514Z,100442.03
2022-12-01T01:32:55.617Z,100421.66
2022-12-01T01:35:22.891Z,100420.25
2022-12-01T01:37:51.124Z,100437.97
2022-12-01T01:40:18.885Z,100411.63
2022-12-01T01:42:46.527Z,100420.88
2022-12-01T01:45:25.905Z,100424.84
2022-12-01T01:47:56.071Z,100403.41
2022-12-01T01:50:26.674Z,100419.94
2022-12-01T01:53:08.110Z,100418.78
2022-12-01T01:55:36.349Z,100409.50
2022-12-01T01:58:08.621Z,100393.69
2022-12-01T02:00:38.476Z,100417.59
2022-12-01T02:03:05.477Z,100384.63
2022-12-01T02:05:34.932Z,100418.22
2022-12-01T02:08:03.781Z,100396.19
2022-12-01T02:10:52.667Z,100412.25
2022-12-01T02:13:33.817Z,100414.06
2022-12-01T02:16:19.475Z,100420.56
2022-12-01T02:19:10.657Z,100415.66
2022-12-01T02:21:47.142Z,100413.53
2022-12-01T02:24:14.013Z,100391.88
2022-12-01T02:26:49.271Z,100415.91
2022-12-01T02:29:43.868Z,100420.47
2022-12-01T02:32:29.990Z,100423.13
2022-12-01T02:35:13.028Z,100419.94
2022-12-01T02:37:50.139Z,100421.56
2022-12-01T02:40:20.002Z,100416.75
2022-12-01T02:43:07.977Z,100412.56
2022-12-01T02:45:43.823Z,100387.19
2022-12-01T02:48:24.981Z,100408.13
2022-12-01T02:50:53.748Z,100387.63
2022-12-01T02:53:20.994Z,100415.91
2022-12-01T02:55:53.224Z,100406.59
2022-12-01T02:58:21.205Z,100395.31
2022-12-01T03:01:08.471Z,100408.63
2022-12-01T03:03:46.233Z,100406.59
2022-12-01T03:06:31.877Z,100412.78
2022-12-01T03:09:10.865Z,100392.84
2022-12-01T03:11:51.736Z,100397.34
2022-12-01T03:14:26.710Z,100413.75
2022-12-01T03:16:54.688Z,100405.44
2022-12-01T03:19:26.611Z,100385.06
2022-12-01T03:22:05.248Z,100407.25
2022-12-01T03:24:34.353Z,100385.94
2022-12-01T03:27:04.125Z,100384.22
2022-12-01T03:29:37.053Z,100400.31
2022-12-01T03:32:10.576Z,100408.00
2022-12-01T03:34:43.700Z,100399.25
2022-12-01T03:37:25.232Z,100403.31
2022-12-01T03:40:00.476Z,100381.22
2022-12-01T03:42:40.684Z,100378.38
2022-12-01T03:45:18.173Z,100400.66
2022-12-01T03:47:46.138Z,100408.66
2022-12-01T03:50:14.402Z,100405.84
2022-12-01T03:52:48.719Z,100403.31
2022-12-01T03:55:31.478Z,100403.19
2022-12-01T03:58:15.128Z,100400.13
2022-12-01T04:00:43.979Z,100411.81
2022-12-01T04:03:18.825Z,100403.44
2022-12-01T04:05:46.518Z,100388.38
2022-12-01T04:08:13.462Z,100406.84
2022-12-01T04:10:40.350Z,100402.34
2022-12-01T04:13:12.266Z,100407.97
2022-12-01T04:15:39.283Z,100405.44
2022-12-01T04:18:06.239Z,100413.66
2022-12-01T04:20:33.236Z,100412.34
2022-12-01T04:23:00.241Z,100413.97
2022-12-01T04:25:27.244Z,100411.84
2022-12-01T04:27:54.104Z,100418.53
2022-12-01T04:30:21.067Z,100419.72
2022-12-01T04:32:47.964Z,100394.66
2022-12-01T04:35:14.972Z,100407.97
2022-12-01T04:37:42.062Z,100422.81
2022-12-01T04:40:10.113Z,100416.31
2022-12-01T04:42:37.054Z,100418.00
2022-12-01T04:45:04.396Z,100417.50
2022-12-01T04:47:31.412Z,100418.97
2022-12-01T04:49:58.474Z,100419.19
2022-12-01T04:52:26.695Z,100423.13
2022-12-01T04:54:56.359Z,100427.81
2022-12-01T04:57:23.278Z,100422.28
2022-12-01T04:59:50.364Z,100411.38
2022-12-01T05:02:17.775Z,100410.25
2022-12-01T05:04:48.209Z,100422.38
2022-12-01T05:07:15.242Z,100425.22
2022-12-01T05:09:42.390Z,100424.06
2022-12-01T05:12:10.263Z,100428.00
2022-12-01T05:14:37.185Z,100420.22
2022-12-01T05:17:04.152Z,100428.34
2022-12-01T05:19:49.716Z,100434.75
2022-12-01T05:22:16.850Z,100433.56
2022-12-01T05:24:43.729Z,100434.72
2022-12-01T05:27:10.810Z,100410.09
2022-12-01T05:29:37.746Z,100428.34
2022-12-01T05:32:05.096Z,100403.38
2022-12-01T05:34:32.066Z,100435.03
2022-12-01T05:36:59.053Z,100433.09
2022-12-01T05:39:26.009Z,100428.34
2022-12-01T05:41:54.111Z,100398.69
2022-12-01T05:44:21.060Z,100429.94
2022-12-01T05:46:48.088Z,100436.09
2022-12-01T05:49:15.217Z,100428.66
2022-12-01T05:51:43.975Z,100435.91
2022-12-01T05:54:11.032Z,100419.59
2022-12-01T05:56:38.087Z,100437.81
2022-12-01T05:59:05.059Z,100421.81
2022-12-01T06:01:32.022Z,100427.16
2022-12-01T06:03:59.145Z,100414.28
2022-12-01T06:06:26.218Z,100440.19
2022-12-01T06:08:53.106Z,100439.31
2022-12-01T06:11:20.146Z,100446.13
2022-12-01T06:13:47.276Z,100443.81
2022-12-01T06:16:14.360Z,100436.78
2022-12-01T06:18:41.375Z,100446.97
2022-12-01T06:21:08.339Z,100454.88
2022-12-01T06:23:36.101Z,100462.63
2022-12-01T06:26:03.613Z,100460.59
2022-12-01T06:28:30.689Z,100460.94
2022-12-01T06:31:02.776Z,100448.25
2022-12-01T06:33:31.738Z,100461.59
2022-12-01T06:36:04.409Z,100454.06
2022-12-01T06:38:33.609Z,100456.16
2022-12-01T06:41:01.133Z,100467.78
2022-12-01T06:43:28.666Z,100465.75
2022-12-01T06:46:01.185Z,100467.03
2022-12-01T06:48:29.673Z,100471.06
2022-12-01T06:51:01.354Z,100481.34
2022-12-01T06:53:29.265Z,100478.78
2022-12-01T06:56:06.178Z,100460.41
2022-12-01T06:58:34.980Z,100460.53
2022-12-01T07:01:09.291Z,100476.41
2022-12-01T07:03:36.425Z,100472.66
2022-12-01T07:06:04.054Z,100473.44
2022-12-01T07:08:32.427Z,100459.97
2022-12-01T07:11:05.387Z,100476.63
2022-12-01T07:13:34.025Z,100460.13
2022-12-01T07:16:05.196Z,100483.38
2022-12-01T07:18:33.559Z,100478.56
2022-12-01T07:21:01.680Z,100487.84
2022-12-01T07:23:29.156Z,100479.13
2022-12-01T07:26:04.792Z,100490.19
2022-12-01T07:28:32.694Z,100488.91
2022-12-01T07:31:08.353Z,100442.44
2022-12-01T07:33:36.142Z,100493.97
2022-12-01T07:36:04.608Z,100490.66
2022-12-01T07:38:32.840Z,100494.25
2022-12-01T07:41:14.134Z,100497.78
2022-12-01T07:43:41.782Z,100492.78
2022-12-01T07:46:17.239Z,100495.03
2022-12-01T07:48:49.076Z,100492.34
2022-12-01T07:51:17.054Z,100498.44
2022-12-01T07:53:45.965Z,100508.88
2022-12-01T07:56:13.491Z,100510.16
2022-12-01T07:58:40.650Z,100507.19
2022-12-01T08:01:09.062Z,100499.19
2022-12-01T08:03:36.851Z,100503.44
2022-12-01T08:06:04.846Z,100506.25
2022-12-01T08:08:33.918Z,100506.88
2022-12-01T08:11:04.872Z,100516.34
2022-12-01T08:13:32.334Z,100515.41
2022-12-01T08:15:59.321Z,100504.53
2022-12-01T08:18:26.364Z,100511.34
2022-12-01T08:20:58.430Z,100494.16
2022-12-01T08:23:25.504Z,100508.03
2022-12-01T08:25:55.767Z,100508.66
2022-12-01T08:28:22.878Z,100489.91
2022-12-01T08:30:50.016Z,100516.34
2022-12-01T08:33:17.063Z,100516.66
2022-12-01T08:35:44.083Z,100513.69
2022-12-01T08:38:11.434Z,100514.66
2022-12-01T08:40:38.596Z,100513.16
2022-12-01T08:43:05.846Z,100513.56
2022-12-01T08:45:32.953Z,100515.91
2022-12-01T08:48:00.148Z,100519.84
2022-12-01T08:50:28.163Z,100517.38
2022-12-01T08:52:55.367Z,100505.34
2022-12-01T08:55:22.807Z,100515.94
2022-12-01T08:57:49.797Z,100521.56
2022-12-01T09:00:16.999Z,100521.03
2022-12-01T09:02:43.887Z,100504.81
2022-12-01T09:05:11.051Z,100524.66
2022-12-01T09:07:38.003Z,100512.81
2022-12-01T09:10:05.901Z,100514.28
2022-12-01T09:12:33.086Z,100526.00
2022-12-01T09:15:00.105Z,100502.34
2022-12-01T09:17:28.575Z,100524.84
2022-12-01T09:19:55.654Z,100529.56
2022-12-01T09:22:22.926Z,100533.91
2022-12-01T09:24:49.891Z,100515.97
2022-12-01T09:27:16.807Z,100523.28
2022-12-01T09:29:43.792Z,100500.28
2022-12-01T09:32:10.818Z,100510.03
2022-12-01T09:34:37.794Z,100486.97
2022-12-01T09:37:05.341Z,100522.16
2022-12-01T09:39:32.325Z,100516.34
2022-12-01T09:42:08.848Z,100517.28
2022-12-01T09:44:45.476Z,100509.84
2022-12-01T09:47:21.271Z,100509.25
2022-12-01T09:50:12.684Z,100514.44
2022-12-01T09:52:57.832Z,100518.38
2022-12-01T09:55:26.515Z,100515.94
2022-12-01T09:57:58.900Z,100517.38
2022-12-01T10:00:30.461Z,100498.75
2022-12-01T10:03:06.978Z,100501.06
2022-12-01T10:06:18.592Z,100511.50
2022-12-01T10:08:39.757Z,100505.59
2022-12-01T10:11:37.534Z,100503.53
2022-12-01T10:14:06.633Z,100494.97
2022-12-01T10:16:38.939Z,100494.75
2022-12-01T10:19:15.803Z,100489.66
2022-12-01T10:21:58.054Z,100489.78
2022-12-01T10:24:40.845Z,100490.00
2022-12-01T10:27:26.737Z,100481.25
2022-12-01T10:30:05.683Z,100481.22
2022-12-01T10:32:43.825Z,100480.72
2022-12-01T10:35:17.595Z,100490.63
2022-12-01T10:37:46.420Z,100489.09
2022-12-01T10:40:15.763Z,100482.94
2022-12-01T10:42:48.763Z,100489.88
2022-12-01T10:45:27.089Z,100485.75
2022-12-01T10:48:15.864Z,100488.47
2022-12-01T10:50:44.056Z,100471.34
2022-12-01T10:53:23.259Z,100454.28
2022-12-01T10:56:02.973Z,100465.63
2022-12-01T10:58:33.957Z,100437.72
2022-12-01T11:01:04.926Z,100461.19
2022-12-01T11:03:35.236Z,100453.50
2022-12-01T11:06:05.090Z,100451.13
2022-12-01T11:08:46.423Z,100449.03
2022-12-01T11:11:30.745Z,100439.47
2022-12-01T11:14:01.525Z,100453.78
2022-12-01T11:16:47.717Z,100418.47
2022-12-01T11:19:26.811Z,100432.66
2022-12-01T11:21:58.386Z,100425.47
2022-12-01T11:24:29.636Z,100432.63
2022-12-01T11:26:58.970Z,100431.28
2022-12-01T11:29:32.130Z,100442.03
2022-12-01T11:32:01.350Z,100433.22
2022-12-01T11:34:31.676Z,100434.75
2022-12-01T11:37:02.958Z,100427.97
2022-12-01T11:39:41.536Z,100434.72
2022-12-01T11:42:28.705Z,100439.19
2022-12-01T11:45:20.521Z,100434.44
2022-12-01T11:48:17.807Z,100444.63
2022-12-01T11:51:01.883Z,100452.72
2022-12-01T11:53:29.057Z,100436.19
2022-12-01T11:56:23.873Z,100438.19
2022-12-01T11:58:57.812Z,100415.94
2022-12-01T12:01:46.777Z,100438.06
2022-12-01T12:04:32.123Z,100435.81
2022-12-01T12:07:24.821Z,100410.34
2022-12-01T12:09:52.003Z,100425.38
2022-12-01T12:12:38.032Z,100434.25
2022-12-01T12:15:32.657Z,100421.44
2022-12-01T12:18:05.903Z,100428.03
2022-12-01T12:20:38.757Z,100420.56
2022-12-01T12:23:11.808Z,100418.47
2022-12-01T12:25:48.176Z,100418.28
2022-12-01T12:28:43.166Z,100424.63
2022-12-01T12:31:28.877Z,100431.00
2022-12-01T12:34:05.131Z,100431.84
2022-12-01T12:36:41.240Z,100438.06
2022-12-01T12:39:36.750Z,100423.94
2022-12-01T12:42:15.056Z,100423.59
2022-12-01T12:45:02.525Z,100422.13
2022-12-01T12:47:50.164Z,100434.19
2022-12-01T12:50:30.615Z,100431.88
2022-12-01T19:50:53.437Z,100479.69
2022-12-01T19:53:22.422Z,100476.69
2022-12-01T19:55:50.394Z,100474.47
2022-12-01T19:58:17.876Z,100467.94
2022-12-01T20:00:46.666Z,100476.25
2022-12-01T20:03:14.284Z,100473.88
2022-12-01T20:05:41.874Z,100449.31
2022-12-01T20:08:13.651Z,100467.75
2022-12-01T20:10:48.789Z,100472.69
2022-12-01T20:13:16.354Z,100473.31
2022-12-01T20:15:44.440Z,100476.16
2022-12-01T20:18:15.288Z,100422.25
2022-12-01T20:20:42.841Z,100476.66
2022-12-01T20:23:10.403Z,100475.50
2022-12-01T20:25:39.414Z,100461.66
2022-12-01T20:28:06.519Z,100469.63
2022-12-01T20:30:34.870Z,100469.53
2022-12-01T20:33:04.064Z,100473.06
2022-12-01T20:35:34.000Z,100473.78
2022-12-01T20:38:01.216Z,100469.19
2022-12-01T20:40:28.716Z,100467.63
2022-12-01T20:42:56.182Z,100472.31
2022-12-01T20:45:24.086Z,100466.97
2022-12-01T20:47:51.545Z,100460.13
2022-12-01T20:50:22.134Z,100461.44
2022-12-01T20:52:49.805Z,100463.75
2022-12-01T20:55:17.385Z,100441.44
2022-12-01T20:57:44.678Z,100467.34
2022-12-01T21:00:14.045Z,100465.53
2022-12-01T21:02:41.134Z,100465.25
2022-12-01T21:05:08.559Z,100467.56
2022-12-01T21:07:36.174Z,100472.50
2022-12-01T21:10:04.737Z,100461.19
2022-12-01T21:12:51.238Z,100469.84
2022-12-01T21:15:25.788Z,100473.28
2022-12-01T21:18:00.885Z,100471.56
2022-12-01T21:20:57.555Z,100470.00
2022-12-01T21:23:27.228Z,100473.72
2022-12-01T21:25:55.472Z,100455.13
2022-12-01T21:28:24.872Z,100444.97
2022-12-01T21:31:02.172Z,100472.13
2022-12-01T21:33:34.502Z,100465.84
2022-12-01T21:36:02.827Z,100467.41
2022-12-01T21:38:32.076Z,100480.38
2022-12-01T21:40:59.194Z,100478.19
2022-12-01T21:43:26.433Z,100471.66
2022-12-01T21:45:58.205Z,100480.38
2022-12-01T21:48:25.152Z,100485.06
2022-12-01T21:51:10.504Z,100483.91
2022-12-01T21:53:39.304Z,100473.75
2022-12-01T21:56:15.311Z,100459.88
2022-12-01T21:58:44.229Z,100480.78
2022-12-01T22:01:21.164Z,100468.63
2022-12-01T22:03:48.501Z,100486.09
2022-12-01T22:06:43.463Z,100492.28
2022-12-01T22:09:22.252Z,100485.16
2022-12-01T22:12:08.627Z,100471.66
2022-12-01T22:14:36.922Z,100489.31
2022-12-01T22:17:06.885Z,100490.94
2022-12-01T22:19:37.824Z,100483.06
2022-12-01T22:22:27.338Z,100478.88
2022-12-01T22:25:00.320Z,100474.78
2022-12-01T22:27:33.050Z,100480.41
2022-12-01T22:30:10.510Z,100474.22
2022-12-01T22:32:59.510Z,100484.09
2022-12-01T22:35:46.424Z,100481.47
2022-12-01T22:38:49.479Z,100480.28
2022-12-01T22:41:19.510Z,100478.97
2022-12-01T22:43:55.681Z,100468.16
2022-12-01T22:46:25.992Z,100460.94
2022-12-01T22:48:55.923Z,100459.41
2022-12-01T22:51:27.701Z,100446.31
2022-12-01T22:54:00.574Z,100464.00
2022-12-01T22:56:32.837Z,100470.44
2022-12-01T22:58:59.938Z,100470.34
2022-12-01T23:01:30.480Z,100474.50
2022-12-01T23:04:15.635Z,100468.81
2022-12-01T23:06:54.597Z,100471.66
2022-12-01T23:09:23.930Z,100464.81
2022-12-01T23:12:05.945Z,100446.13
2022-12-01T23:14:33.738Z,100463.13
2022-12-01T23:17:12.528Z,100436.25
2022-12-01T23:19:39.486Z,100446.53
2022-12-01T23:22:06.450Z,100444.88
2022-12-01T23:24:34.319Z,100451.53
2022-12-01T23:27:01.988Z,100453.63
2022-12-01T23:29:30.581Z,100443.94
2022-12-01T23:31:57.754Z,100444.13
2022-12-01T23:34:24.921Z,100430.94
2022-12-01T23:36:52.018Z,100416.78
2022-12-01T23:39:23.473Z,100427.59
2022-12-01T23:41:51.565Z,100422.03
2022-12-01T23:44:45.757Z,100442.41
2022-12-01T23:47:19.849Z,100394.00
2022-12-01T23:49:48.203Z,100434.47
2022-12-01T23:52:20.035Z,100433.78
2022-12-01T23:54:47.213Z,100423.81
2022-12-01T23:57:23.752Z,100437.13
2022-12-01T23:59:55.232Z,100437.09
